createdAt,value
2022-09-28T00:01:16.441Z,98514.94
2022-09-28T00:03:45.011Z,98513.81
2022-09-28T00:06:14.976Z,98519.97
2022-09-28T00:08:42.661Z,98513.03
2022-09-28T00:11:14.021Z,98522.97
2022-09-28T00:13:43.253Z,98516.97
2022-09-28T00:16:17.234Z,98517.59
2022-09-28T00:18:45.894Z,98510.03
2022-09-28T00:21:16.226Z,98513.81
2022-09-28T00:24:02.433Z,98521.22
2022-09-28T00:26:32.051Z,98512.41
2022-09-28T00:29:01.841Z,98513.34
2022-09-28T00:31:32.944Z,98520.28
2022-09-28T00:34:02.242Z,98509.09
2022-09-28T00:36:31.971Z,98518.22
2022-09-28T00:39:03.313Z,98525.97
2022-09-28T00:41:31.165Z,98519.19
2022-09-28T00:44:26.448Z,98513.66
2022-09-28T00:46:56.622Z,98521.69
2022-09-28T00:49:34.504Z,98517.47
2022-09-28T00:52:05.194Z,98515.56
2022-09-28T00:54:33.012Z,98521.06
2022-09-28T00:57:01.876Z,98518.72
2022-09-28T00:59:29.553Z,98515.56
2022-09-28T01:01:57.015Z,98522.03
2022-09-28T01:04:28.045Z,98528.16
2022-09-28T01:06:59.483Z,98531.34
2022-09-28T01:09:28.010Z,98531.03
2022-09-28T01:11:56.182Z,98528.16
2022-09-28T01:14:26.077Z,98519.94
2022-09-28T01:17:03.774Z,98527.22
2022-09-28T01:20:00.207Z,98517.75
2022-09-28T01:22:55.621Z,98529.75
2022-09-28T01:25:32.728Z,98532.88
2022-09-28T01:28:12.539Z,98526.75
2022-09-28T01:30:51.423Z,98533.53
2022-09-28T01:33:32.009Z,98531.03
2022-09-28T01:36:08.811Z,98537.16
2022-09-28T01:38:48.453Z,98534.16
2022-09-28T01:41:18.410Z,98534.94
2022-09-28T01:43:52.811Z,98524.72
2022-09-28T01:46:27.801Z,98531.63
2022-09-28T01:49:02.997Z,98536.06
2022-09-28T01:52:01.182Z,98539.97
2022-09-28T01:54:45.511Z,98528.94
2022-09-28T01:57:21.646Z,98541.72
2022-09-28T02:00:09.256Z,98543.47
2022-09-28T02:02:54.835Z,98557.97
2022-09-28T02:05:35.984Z,98550.25
2022-09-28T02:08:11.167Z,98562.81
2022-09-28T02:10:47.926Z,98551.31
2022-09-28T02:13:32.544Z,98547.38
2022-09-28T02:16:14.669Z,98547.56
2022-09-28T02:18:42.898Z,98547.06
2022-09-28T02:21:17.824Z,98548.16
2022-09-28T02:23:56.669Z,98555.09
2022-09-28T02:26:31.900Z,98552.25
2022-09-28T02:28:59.906Z,98545.59
2022-09-28T02:31:28.665Z,98556.81
2022-09-28T02:33:58.342Z,98557.59
2022-09-28T02:36:28.919Z,98566.72
2022-09-28T02:38:58.566Z,98563.44
2022-09-28T02:41:44.838Z,98564.72
2022-09-28T02:44:40.370Z,98571.50
2022-09-28T02:47:39.369Z,98571.19
2022-09-28T02:50:14.100Z,98574.97
2022-09-28T02:53:09.331Z,98574.34
2022-09-28T02:55:51.958Z,98572.13
2022-09-28T02:58:41.245Z,98574.81
2022-09-28T03:01:30.352Z,98569.47
2022-09-28T03:04:12.501Z,98569.94
2022-09-28T03:06:48.774Z,98575.94
2022-09-28T03:09:26.023Z,98583.34
2022-09-28T03:12:01.669Z,98575.13
2022-09-28T03:14:29.196Z,98584.91
2022-09-28T03:16:58.781Z,98577.34
2022-09-28T03:19:30.930Z,98583.97
2022-09-28T03:22:00.852Z,98576.88
2022-09-28T03:24:28.927Z,98591.69
2022-09-28T03:26:56.371Z,98582.84
2022-09-28T03:29:24.250Z,98583.03
2022-09-28T03:31:58.595Z,98589.97
2022-09-28T03:34:26.075Z,98584.25
2022-09-28T03:36:53.521Z,98592.94
2022-09-28T03:39:20.918Z,98600.19
2022-09-28T03:41:48.363Z,98603.53
2022-09-28T03:44:17.859Z,98597.84
2022-09-28T03:46:46.984Z,98595.34
2022-09-28T03:49:14.593Z,98606.69
2022-09-28T03:51:42.159Z,98597.22
2022-09-28T03:54:09.626Z,98606.38
2022-09-28T03:56:37.130Z,98612.50
2022-09-28T03:59:05.410Z,98607.63
2022-09-28T04:01:33.179Z,98597.38
2022-09-28T04:04:00.881Z,98611.25
2022-09-28T04:06:30.229Z,98609.69
2022-09-28T04:08:57.725Z,98619.47
2022-09-28T04:11:26.078Z,98625.16
2022-09-28T04:13:53.564Z,98619.66
2022-09-28T04:16:21.105Z,98619.97
2022-09-28T04:19:15.519Z,98607.03
2022-09-28T04:21:58.069Z,98623.28
2022-09-28T04:24:25.551Z,98617.63
2022-09-28T04:27:13.155Z,98626.13
2022-09-28T04:29:43.399Z,98630.38
2022-09-28T04:32:12.306Z,98632.25
2022-09-28T04:34:44.154Z,98636.69
2022-09-28T04:37:12.641Z,98633.22
2022-09-28T04:39:44.031Z,98635.25
2022-09-28T04:42:17.408Z,98639.69
2022-09-28T04:44:45.443Z,98625.16
2022-09-28T04:47:13.318Z,98634.00
2022-09-28T04:50:00.952Z,98635.72
2022-09-28T04:52:37.111Z,98639.66
2022-09-28T04:55:06.413Z,98638.56
2022-09-28T04:57:36.075Z,98638.09
2022-09-28T05:00:04.395Z,98643.75
2022-09-28T05:02:34.761Z,98644.22
2022-09-28T05:05:31.309Z,98642.66
2022-09-28T05:08:09.717Z,98640.28
2022-09-28T05:10:40.642Z,98640.75
2022-09-28T05:13:09.423Z,98650.50
2022-09-28T05:15:38.549Z,98649.53
2022-09-28T05:18:07.527Z,98650.75
2022-09-28T05:20:47.129Z,98644.22
2022-09-28T05:23:15.874Z,98646.84
2022-09-28T05:25:45.614Z,98647.91
2022-09-28T05:28:28.331Z,98648.66
2022-09-28T05:31:18.431Z,98643.28
2022-09-28T05:34:10.044Z,98649.25
2022-09-28T05:36:38.961Z,98652.38
2022-09-28T05:39:07.217Z,98644.72
2022-09-28T05:41:35.505Z,98643.84
2022-09-28T05:44:03.187Z,98633.06
2022-09-28T05:46:31.250Z,98628.97
2022-09-28T05:49:01.267Z,98642.03
2022-09-28T05:51:28.939Z,98631.19
2022-09-28T05:53:58.131Z,98645.16
2022-09-28T05:56:31.291Z,98637.13
2022-09-28T05:58:59.171Z,98638.59
2022-09-28T06:01:29.827Z,98635.13
2022-09-28T06:03:59.233Z,98637.09
2022-09-28T06:06:26.769Z,98637.88
2022-09-28T06:08:54.231Z,98642.06
2022-09-28T06:11:40.247Z,98629.34
2022-09-28T06:14:23.883Z,98634.91
2022-09-28T06:16:51.447Z,98632.44
2022-09-28T06:19:19.037Z,98639.41
2022-09-28T06:22:04.980Z,98639.41
2022-09-28T06:24:36.709Z,98635.81
2022-09-28T06:27:04.296Z,98639.94
2022-09-28T06:29:31.755Z,98637.03
2022-09-28T06:31:59.335Z,98639.84
2022-09-28T06:34:26.790Z,98632.56
2022-09-28T06:36:54.306Z,98645.34
2022-09-28T06:39:21.822Z,98632.09
2022-09-28T06:41:49.297Z,98644.34
2022-09-28T06:44:20.401Z,98636.47
2022-09-28T06:47:23.368Z,98642.53
2022-09-28T06:50:20.553Z,98640.63
2022-09-28T06:53:06.154Z,98645.25
2022-09-28T06:55:53.817Z,98640.06
2022-09-28T06:58:22.553Z,98635.91
2022-09-28T07:00:52.194Z,98645.31
2022-09-28T07:03:24.357Z,98649.94
2022-09-28T07:06:12.475Z,98650.84
2022-09-28T07:09:16.689Z,98636.25
2022-09-28T07:12:20.043Z,98631.75
2022-09-28T07:14:56.581Z,98650.16
2022-09-28T07:17:26.511Z,98649.47
2022-09-28T07:20:02.199Z,98643.84
2022-09-28T07:22:43.132Z,98637.44
2022-09-28T07:25:16.307Z,98635.88
2022-09-28T07:28:10.186Z,98641.81
2022-09-28T07:31:03.710Z,98642.72
2022-09-28T07:33:51.547Z,98635.97
2022-09-28T07:36:35.247Z,98640.78
2022-09-28T07:39:04.218Z,98639.41
2022-09-28T07:41:34.454Z,98635.25
2022-09-28T07:44:07.765Z,98635.78
2022-09-28T07:46:37.406Z,98631.47
2022-09-28T07:49:12.474Z,98634.81
2022-09-28T07:51:56.740Z,98629.91
2022-09-28T07:54:31.510Z,98622.34
2022-09-28T07:57:23.319Z,98634.28
2022-09-28T07:59:57.138Z,98628.84
2022-09-28T08:02:42.599Z,98630.69
2022-09-28T08:05:10.304Z,98624.31
2022-09-28T08:07:38.612Z,98619.59
2022-09-28T08:10:10.002Z,98623.31
2022-09-28T08:12:40.924Z,98623.91
2022-09-28T08:15:37.295Z,98618.41
2022-09-28T08:18:17.021Z,98615.59
2022-09-28T08:21:03.250Z,98619.75
2022-09-28T08:23:31.172Z,98615.84
2022-09-28T08:26:00.015Z,98618.50
2022-09-28T08:28:27.507Z,98625.72
2022-09-28T08:31:02.008Z,98630.16
2022-09-28T08:33:32.640Z,98621.81
2022-09-28T08:36:22.890Z,98617.34
2022-09-28T08:39:02.090Z,98625.13
2022-09-28T08:41:48.692Z,98623.78
2022-09-28T08:48:15.030Z,98626.00
2022-09-28T08:51:14.974Z,98623.84
2022-09-28T08:54:28.958Z,98631.28
2022-09-28T08:57:20.712Z,98630.25
2022-09-28T09:00:00.152Z,98630.50
2022-09-28T09:02:36.491Z,98630.28
2022-09-28T09:05:19.399Z,98637.00
2022-09-28T09:08:21.773Z,98625.09
2022-09-28T09:11:24.120Z,98639.63
2022-09-28T09:13:54.656Z,98632.22
2022-09-28T09:16:38.866Z,98639.06
2022-09-28T09:19:55.455Z,98629.94
2022-09-28T09:22:41.341Z,98646.56
2022-09-28T09:25:38.276Z,98646.00
2022-09-28T09:28:31.004Z,98635.88
2022-09-28T09:31:18.574Z,98627.78
2022-09-28T09:34:15.979Z,98649.78
2022-09-28T09:37:07.838Z,98646.81
2022-09-28T09:40:45.053Z,98643.34
2022-09-28T09:44:01.398Z,98644.03
2022-09-28T09:47:15.113Z,98643.56
2022-09-28T09:49:58.390Z,98646.63
2022-09-28T09:52:46.974Z,98652.63
2022-09-28T09:55:29.931Z,98659.00
2022-09-28T09:58:26.639Z,98649.03
2022-09-28T10:01:09.545Z,98650.22
2022-09-28T10:03:56.945Z,98659.28
2022-09-28T10:06:35.647Z,98653.53
2022-09-28T10:09:14.198Z,98648.50
2022-09-28T10:11:50.531Z,98652.31
2022-09-28T10:14:24.491Z,98659.16
2022-09-28T10:17:04.115Z,98658.25
2022-09-28T10:19:50.609Z,98662.88
2022-09-28T10:22:33.799Z,98655.81
2022-09-28T10:25:12.978Z,98668.50
2022-09-28T10:27:46.771Z,98664.66
2022-09-28T10:30:23.555Z,98661.72
2022-09-28T10:32:55.373Z,98658.81
2022-09-28T10:35:24.825Z,98657.56
2022-09-28T10:38:14.569Z,98650.38
2022-09-28T10:40:57.112Z,98655.91
2022-09-28T10:44:16.609Z,98649.81
2022-09-28T10:47:05.675Z,98648.56
2022-09-28T10:49:46.757Z,98648.63
2022-09-28T10:52:41.966Z,98654.31
2022-09-28T10:55:37.228Z,98644.44
2022-09-28T10:58:52.504Z,98640.53
2022-09-28T11:01:33.304Z,98640.31
2022-09-28T11:04:04.359Z,98642.66
2022-09-28T11:06:37.304Z,98646.13
2022-09-28T11:09:18.932Z,98650.25
2022-09-28T11:11:47.539Z,98638.13
2022-09-28T11:14:39.760Z,98645.91
2022-09-28T11:17:31.284Z,98644.88
2022-09-28T11:20:27.961Z,98639.91
2022-09-28T11:23:01.567Z,98649.41
2022-09-28T11:25:34.279Z,98644.13
2022-09-28T11:28:04.865Z,98651.53
2022-09-28T11:30:52.904Z,98657.16
2022-09-28T11:33:47.121Z,98655.66
2022-09-28T11:36:29.854Z,98646.44
2022-09-28T11:39:18.236Z,98662.31
2022-09-28T11:42:24.309Z,98657.59
2022-09-28T11:45:17.235Z,98656.88
2022-09-28T11:48:30.236Z,98656.31
2022-09-28T11:51:11.672Z,98631.63
2022-09-28T11:54:01.992Z,98661.78
2022-09-28T11:56:35.496Z,98645.66
2022-09-28T11:59:15.256Z,98652.72
2022-09-28T12:01:57.900Z,98657.31
2022-09-28T12:05:03.439Z,98663.69
2022-09-28T12:07:53.266Z,98657.72
2022-09-28T12:10:54.123Z,98658.03
2022-09-28T12:13:40.472Z,98659.03
2022-09-28T12:16:37.548Z,98658.13
2022-09-28T12:19:08.462Z,98657.63
2022-09-28T12:21:45.606Z,98658.44
2022-09-28T12:24:24.395Z,98657.72
2022-09-28T12:27:01.080Z,98665.00
2022-09-28T12:29:35.115Z,98660.97
2022-09-28T12:32:31.710Z,98666.19
2022-09-28T12:34:59.267Z,98664.13
2022-09-28T12:37:29.244Z,98657.81
2022-09-28T12:40:28.179Z,98669.88
2022-09-28T12:43:10.546Z,98665.56
2022-09-28T12:46:17.507Z,98678.09
2022-09-28T12:52:32.764Z,98675.59
2022-09-28T12:55:34.186Z,98669.16
2022-09-28T12:58:32.421Z,98679.59
2022-09-28T13:01:08.868Z,98681.59
2022-09-28T13:03:52.516Z,98676.16
2022-09-28T13:06:35.660Z,98670.50
2022-09-28T13:09:20.497Z,98680.38
2022-09-28T13:11:56.001Z,98683.06
2022-09-28T13:14:45.359Z,98684.28
2022-09-28T13:17:51.987Z,98691.41
2022-09-28T13:20:48.605Z,98683.72
2022-09-28T13:23:22.084Z,98691.34
2022-09-28T13:26:15.630Z,98686.72
2022-09-28T13:28:46.444Z,98690.56
2022-09-28T13:31:20.000Z,98686.00
2022-09-28T13:33:50.191Z,98686.63
2022-09-28T13:36:27.099Z,98689.31
2022-09-28T13:39:00.100Z,98687.47
2022-09-28T13:41:38.253Z,98693.44
2022-09-28T13:44:26.351Z,98699.28
2022-09-28T13:47:08.790Z,98684.78
2022-09-28T13:49:47.820Z,98688.91
2022-09-28T13:52:30.256Z,98688.09
2022-09-28T13:55:03.887Z,98688.78
2022-09-28T13:57:43.757Z,98697.13
2022-09-28T14:00:34.147Z,98687.97
2022-09-28T14:03:15.283Z,98692.88
2022-09-28T14:05:46.843Z,98698.25
2022-09-28T14:08:38.644Z,98690.66
2022-09-28T14:11:40.915Z,98691.78
2022-09-28T14:14:08.383Z,98688.78
2022-09-28T14:16:37.224Z,98693.00
2022-09-28T14:19:19.101Z,98699.66
2022-09-28T14:22:05.458Z,98693.81
2022-09-28T14:24:47.632Z,98696.47
2022-09-28T14:27:24.419Z,98697.06
2022-09-28T14:30:06.710Z,98704.31
2022-09-28T14:32:36.799Z,98705.69
2022-09-28T14:35:21.364Z,98715.66
2022-09-28T14:38:09.291Z,98715.31
2022-09-28T14:41:15.557Z,98715.34
2022-09-28T14:43:46.143Z,98712.41
2022-09-28T14:46:19.282Z,98705.72
2022-09-28T14:48:51.186Z,98715.00
2022-09-28T14:51:27.771Z,98704.16
2022-09-28T14:54:02.825Z,98701.88
2022-09-28T14:56:38.841Z,98700.16
2022-09-28T14:59:07.818Z,98698.69
2022-09-28T15:01:36.691Z,98698.50
2022-09-28T15:04:09.680Z,98703.06
2022-09-28T15:06:49.072Z,98696.72
2022-09-28T15:09:36.204Z,98696.06
2022-09-28T15:12:15.401Z,98697.91
2022-09-28T15:14:55.809Z,98691.75
2022-09-28T15:17:27.645Z,98697.72
2022-09-28T15:20:30.384Z,98692.56
2022-09-28T15:23:00.341Z,98698.00
2022-09-28T15:25:32.629Z,98702.56
2022-09-28T15:28:03.779Z,98694.63
2022-09-28T15:30:34.189Z,98686.25
2022-09-28T15:33:21.834Z,98694.59
2022-09-28T15:35:59.849Z,98690.69
2022-09-28T15:38:27.702Z,98695.63
2022-09-28T15:40:56.303Z,98697.63
2022-09-28T15:43:29.345Z,98690.38
2022-09-28T15:46:18.577Z,98701.03
2022-09-28T15:48:59.714Z,98697.38
2022-09-28T15:51:28.645Z,98700.78
2022-09-28T15:54:21.872Z,98692.34
2022-09-28T15:57:02.877Z,98700.38
2022-09-28T15:59:35.050Z,98701.09
2022-09-28T16:02:23.190Z,98708.59
2022-09-28T16:05:00.850Z,98708.50
2022-09-28T16:07:42.312Z,98713.75
2022-09-28T16:10:12.731Z,98713.69
2022-09-28T16:12:40.258Z,98711.75
2022-09-28T16:15:37.012Z,98715.94
2022-09-28T16:18:07.073Z,98720.06
2022-09-28T16:20:40.546Z,98722.75
2022-09-28T16:23:17.413Z,98722.44
2022-09-28T16:25:59.047Z,98721.00
2022-09-28T16:28:46.200Z,98716.41
2022-09-28T16:31:13.818Z,98683.94
2022-09-28T16:34:11.570Z,98715.03
2022-09-28T16:36:46.647Z,98712.09
2022-09-28T16:39:16.843Z,98709.50
2022-09-28T16:42:02.039Z,98718.31
2022-09-28T16:44:30.966Z,98704.78
2022-09-28T16:47:00.457Z,98707.75
2022-09-28T16:49:29.252Z,98716.09
2022-09-28T16:51:58.311Z,98706.16
2022-09-28T16:54:44.537Z,98711.03
2022-09-28T16:57:13.866Z,98712.59
2022-09-28T16:59:41.431Z,98713.22
2022-09-28T17:05:14.183Z,98726.59
2022-09-28T17:07:42.874Z,98730.38
2022-09-28T17:10:41.227Z,98731.13
2022-09-28T17:13:27.261Z,98726.88
2022-09-28T17:15:54.713Z,98726.72
2022-09-28T17:18:22.282Z,98722.38
2022-09-28T17:20:52.042Z,98718.41
2022-09-28T17:25:47.633Z,98722.41
2022-09-28T17:28:26.068Z,98720.56
2022-09-28T17:30:54.132Z,98722.19
2022-09-28T17:33:21.646Z,98720.59
2022-09-28T17:35:51.948Z,98720.59
2022-09-28T17:38:19.884Z,98725.16
2022-09-28T17:40:48.427Z,98720.13
2022-09-28T17:43:16.080Z,98724.69
2022-09-28T17:45:47.319Z,98727.34
2022-09-28T17:48:17.901Z,98725.94
2022-09-28T17:50:47.707Z,98727.63
2022-09-28T17:53:15.539Z,98726.16
2022-09-28T17:55:46.272Z,98727.34
2022-09-28T17:58:20.335Z,98726.16
2022-09-28T18:00:50.217Z,98726.84
2022-09-28T18:03:21.185Z,98725.56
2022-09-28T18:06:13.373Z,98727.53
2022-09-28T18:08:41.796Z,98719.03
2022-09-28T18:11:09.640Z,98716.97
2022-09-28T18:13:37.274Z,98716.97
2022-09-28T18:16:05.824Z,98721.19
2022-09-28T18:18:36.761Z,98720.50
2022-09-28T18:21:04.875Z,98729.44
2022-09-28T18:23:32.280Z,98727.13
2022-09-28T18:25:59.697Z,98723.16
2022-09-28T18:28:27.206Z,98719.03
2022-09-28T18:30:54.723Z,98734.25
2022-09-28T18:33:22.214Z,98729.50
2022-09-28T18:35:54.106Z,98728.34
2022-09-28T18:38:21.942Z,98733.34
2022-09-28T18:40:51.087Z,98721.19
2022-09-28T18:43:18.632Z,98730.19
2022-09-28T18:45:46.106Z,98732.56
2022-09-28T18:48:13.678Z,98733.06
2022-09-28T18:50:44.312Z,98734.06
2022-09-28T18:53:12.215Z,98723.97
2022-09-28T18:55:44.767Z,98731.59
2022-09-28T18:58:12.661Z,98735.44
2022-09-28T19:00:42.308Z,98732.97
2022-09-28T19:03:11.823Z,98735.63
2022-09-28T19:05:46.314Z,98732.59
2022-09-28T19:08:14.164Z,98732.47
2022-09-28T19:10:41.595Z,98731.38
2022-09-28T19:13:09.015Z,98733.28
2022-09-28T19:15:37.894Z,98727.63
2022-09-28T19:18:05.394Z,98739.59
2022-09-28T19:20:34.004Z,98739.41
2022-09-28T19:23:01.454Z,98734.66
2022-09-28T19:25:29.413Z,98734.16
2022-09-28T19:27:56.867Z,98732.97
2022-09-28T19:30:24.250Z,98729.78
2022-09-28T19:32:51.663Z,98729.31
2022-09-28T19:35:19.099Z,98732.28
2022-09-28T19:37:47.039Z,98730.69
2022-09-28T19:40:14.505Z,98728.00
2022-09-28T19:42:41.886Z,98732.88
2022-09-28T19:45:11.112Z,98726.72
2022-09-28T19:47:39.241Z,98729.38
2022-09-28T19:50:07.353Z,98730.47
2022-09-28T19:52:34.715Z,98737.69
2022-09-28T19:55:02.153Z,98728.09
2022-09-28T19:57:32.861Z,98733.94
2022-09-28T20:00:03.086Z,98732.94
2022-09-28T20:02:35.209Z,98739.28
2022-09-28T20:05:03.057Z,98726.53
2022-09-28T20:07:33.224Z,98739.88
2022-09-28T20:10:00.617Z,98742.03
2022-09-28T20:12:28.174Z,98734.31
2022-09-28T20:14:55.575Z,98740.75
2022-09-28T20:17:22.973Z,98735.00
2022-09-28T20:19:51.995Z,98744.28
2022-09-28T20:22:20.234Z,98743.50
2022-09-28T20:24:47.847Z,98741.13
2022-09-28T20:27:15.296Z,98740.34
2022-09-28T20:29:43.340Z,98743.59
2022-09-28T20:32:11.797Z,98745.97
2022-09-28T20:34:39.251Z,98743.59
2022-09-28T20:37:06.689Z,98747.94
2022-09-28T20:39:34.710Z,98750.59
2022-09-28T20:42:03.119Z,98755.16
2022-09-28T20:44:31.259Z,98746.91
2022-09-28T20:46:58.795Z,98757.88
2022-09-28T20:49:28.305Z,98748.28
2022-09-28T20:51:55.881Z,98749.97
2022-09-28T20:54:23.405Z,98747.88
2022-09-28T20:56:50.775Z,98754.75
2022-09-28T20:59:18.647Z,98750.47
2022-09-28T21:01:46.238Z,98745.44
2022-09-28T21:04:13.708Z,98740.66
2022-09-28T21:06:42.519Z,98739.28
2022-09-28T21:09:11.558Z,98729.38
2022-09-28T21:11:40.430Z,98748.41
2022-09-28T21:14:09.855Z,98742.75
2022-09-28T21:16:38.066Z,98745.44
2022-09-28T21:19:05.553Z,98740.38
2022-09-28T21:21:33.155Z,98740.47
2022-09-28T21:24:00.849Z,98743.13
2022-09-28T21:26:29.784Z,98744.72
2022-09-28T21:28:59.612Z,98742.53
2022-09-28T21:31:30.393Z,98745.28
2022-09-28T21:33:58.631Z,98742.72
2022-09-28T21:36:26.609Z,98740.63
2022-09-28T21:38:55.814Z,98739.81
2022-09-28T21:41:26.142Z,98746.09
2022-09-28T21:43:53.768Z,98736.38
2022-09-28T21:46:21.697Z,98742.78
2022-09-28T21:48:56.536Z,98736.50
2022-09-28T21:51:24.831Z,98740.63
2022-09-28T21:53:52.282Z,98735.66
2022-09-28T21:56:19.943Z,98726.06
2022-09-28T21:58:47.745Z,98734.78
2022-09-28T22:01:18.459Z,98737.97
2022-09-28T22:03:48.295Z,98728.84
2022-09-28T22:06:18.554Z,98735.00
2022-09-28T22:08:47.483Z,98735.78
2022-09-28T22:11:20.412Z,98729.56
2022-09-28T22:13:49.857Z,98732.03
2022-09-28T22:16:19.662Z,98724.63
2022-09-28T22:18:48.075Z,98724.63
2022-09-28T22:21:18.677Z,98726.19
2022-09-28T22:23:46.605Z,98727.28
2022-09-28T22:26:19.193Z,98733.69
2022-09-28T22:28:52.633Z,98726.91
2022-09-28T22:31:23.259Z,98732.88
2022-09-28T22:33:50.955Z,98729.25
2022-09-28T22:36:19.427Z,98735.13
2022-09-28T22:38:48.797Z,98735.94
2022-09-28T22:41:18.995Z,98737.63
2022-09-28T22:43:46.998Z,98733.41
2022-09-28T22:46:23.669Z,98741.06
2022-09-28T22:48:56.574Z,98743.53
2022-09-28T22:51:25.894Z,98732.16
2022-09-28T22:53:53.224Z,98732.69
2022-09-28T22:56:20.878Z,98742.28
2022-09-28T22:58:48.544Z,98745.25
2022-09-28T23:01:21.451Z,98734.59
2022-09-28T23:03:50.195Z,98746.84
2022-09-28T23:06:21.089Z,98738.84
2022-09-28T23:08:50.643Z,98737.31
2022-09-28T23:11:19.436Z,98736.81
2022-09-28T23:13:51.547Z,98735.94
2022-09-28T23:16:19.954Z,98714.19
2022-09-28T23:18:49.452Z,98734.66
2022-09-28T23:21:19.506Z,98740.50
2022-09-28T23:23:52.535Z,98737.97
2022-09-28T23:26:25.513Z,98739.34
2022-09-28T23:28:53.665Z,98734.59
2022-09-28T23:31:24.136Z,98745.53
2022-09-28T23:33:52.374Z,98733.91
2022-09-28T23:36:19.775Z,98735.56
2022-09-28T23:38:47.228Z,98736.88
2022-09-28T23:41:14.700Z,98735.28
2022-09-28T23:43:42.138Z,98740.09
2022-09-28T23:46:09.691Z,98733.69
2022-09-28T23:48:37.151Z,98737.66
2022-09-28T23:51:05.258Z,98736.56
2022-09-28T23:53:32.702Z,98739.00
2022-09-28T23:56:00.344Z,98736.88
2022-09-28T23:58:28.732Z,98732.44
